sensor_id;sensor_type;location;lat;lon;timestamp;P1;durP1;ratioP1;P2;durP2;ratioP2
37645;SDS011;23489;49.600;6.138;2022-11-15T00:00:33;15.73;;;12.13;;
37645;SDS011;23489;49.600;6.138;2022-11-15T00:03:19;15.40;;;12.43;;
37645;SDS011;23489;49.600;6.138;2022-11-15T00:06:05;17.63;;;12.25;;
37645;SDS011;23489;49.600;6.138;2022-11-15T00:08:49;16.30;;;12.32;;
37645;SDS011;23489;49.600;6.138;2022-11-15T00:11:33;16.95;;;12.85;;
37645;SDS011;23489;49.600;6.138;2022-11-15T00:14:18;16.95;;;12.20;;
37645;SDS011;23489;49.600;6.138;2022-11-15T00:17:02;16.90;;;12.05;;
37645;SDS011;23489;49.600;6.138;2022-11-15T00:19:46;13.85;;;11.40;;
37645;SDS011;23489;49.600;6.138;2022-11-15T00:22:33;14.45;;;12.00;;
37645;SDS011;23489;49.600;6.138;2022-11-15T00:25:18;15.32;;;11.82;;
37645;SDS011;23489;49.600;6.138;2022-11-15T00:28:02;16.17;;;11.75;;
37645;SDS011;23489;49.600;6.138;2022-11-15T00:30:46;16.45;;;11.98;;
37645;SDS011;23489;49.600;6.138;2022-11-15T00:33:30;16.85;;;12.45;;
37645;SDS011;23489;49.600;6.138;2022-11-15T00:36:15;16.73;;;12.13;;
37645;SDS011;23489;49.600;6.138;2022-11-15T00:38:59;17.15;;;12.15;;
37645;SDS011;23489;49.600;6.138;2022-11-15T00:41:44;16.35;;;11.70;;
37645;SDS011;23489;49.600;6.138;2022-11-15T00:44:28;15.80;;;11.43;;
37645;SDS011;23489;49.600;6.138;2022-11-15T00:47:12;16.25;;;11.07;;
37645;SDS011;23489;49.600;6.138;2022-11-15T00:49:57;15.15;;;11.25;;
37645;SDS011;23489;49.600;6.138;2022-11-15T00:52:41;13.73;;;10.80;;
37645;SDS011;23489;49.600;6.138;2022-11-15T00:55:27;15.32;;;11.35;;
37645;SDS011;23489;49.600;6.138;2022-11-15T00:58:11;12.73;;;10.20;;
37645;SDS011;23489;49.600;6.138;2022-11-15T01:00:55;11.88;;;9.77;;
37645;SDS011;23489;49.600;6.138;2022-11-15T01:03:40;12.38;;;9.60;;
37645;SDS011;23489;49.600;6.138;2022-11-15T01:06:25;12.00;;;9.40;;
37645;SDS011;23489;49.600;6.138;2022-11-15T01:09:09;11.18;;;8.52;;
37645;SDS011;23489;49.600;6.138;2022-11-15T01:11:53;10.98;;;7.90;;
37645;SDS011;23489;49.600;6.138;2022-11-15T01:14:38;10.13;;;7.75;;
37645;SDS011;23489;49.600;6.138;2022-11-15T01:17:22;8.32;;;6.57;;
37645;SDS011;23489;49.600;6.138;2022-11-15T01:20:06;8.13;;;5.33;;
37645;SDS011;23489;49.600;6.138;2022-11-15T01:22:51;6.32;;;4.65;;
37645;SDS011;23489;49.600;6.138;2022-11-15T01:25:35;7.40;;;4.10;;
37645;SDS011;23489;49.600;6.138;2022-11-15T01:28:19;5.45;;;3.80;;
37645;SDS011;23489;49.600;6.138;2022-11-15T01:31:05;5.88;;;3.70;;
37645;SDS011;23489;49.600;6.138;2022-11-15T01:33:52;6.20;;;3.85;;
37645;SDS011;23489;49.600;6.138;2022-11-15T01:36:37;4.40;;;4.00;;
37645;SDS011;23489;49.600;6.138;2022-11-15T01:39:21;4.70;;;3.70;;
37645;SDS011;23489;49.600;6.138;2022-11-15T01:42:05;4.47;;;3.60;;
37645;SDS011;23489;49.600;6.138;2022-11-15T01:44:50;5.40;;;3.53;;
37645;SDS011;23489;49.600;6.138;2022-11-15T01:47:37;5.10;;;3.40;;
37645;SDS011;23489;49.600;6.138;2022-11-15T01:50:28;4.75;;;3.20;;
37645;SDS011;23489;49.600;6.138;2022-11-15T01:53:15;3.40;;;3.10;;
37645;SDS011;23489;49.600;6.138;2022-11-15T01:56:04;4.53;;;3.10;;
37645;SDS011;23489;49.600;6.138;2022-11-15T01:58:51;3.90;;;3.00;;
37645;SDS011;23489;49.600;6.138;2022-11-15T02:01:36;4.53;;;3.03;;
37645;SDS011;23489;49.600;6.138;2022-11-15T02:07:11;3.53;;;2.60;;
37645;SDS011;23489;49.600;6.138;2022-11-15T02:09:58;3.10;;;2.80;;
37645;SDS011;23489;49.600;6.138;2022-11-15T02:12:47;5.82;;;2.80;;
37645;SDS011;23489;49.600;6.138;2022-11-15T02:15:34;3.35;;;2.70;;
37645;SDS011;23489;49.600;6.138;2022-11-15T02:18:34;3.83;;;2.70;;
37645;SDS011;23489;49.600;6.138;2022-11-15T02:21:32;3.05;;;2.60;;
37645;SDS011;23489;49.600;6.138;2022-11-15T02:24:55;2.95;;;2.58;;
37645;SDS011;23489;49.600;6.138;2022-11-15T02:30:41;2.80;;;2.45;;
37645;SDS011;23489;49.600;6.138;2022-11-15T02:37:00;3.75;;;2.80;;
37645;SDS011;23489;49.600;6.138;2022-11-15T02:43:42;3.28;;;2.70;;
37645;SDS011;23489;49.600;6.138;2022-11-15T02:46:42;3.85;;;2.50;;
37645;SDS011;23489;49.600;6.138;2022-11-15T02:49:51;5.20;;;2.60;;
37645;SDS011;23489;49.600;6.138;2022-11-15T02:52:44;4.70;;;2.78;;
37645;SDS011;23489;49.600;6.138;2022-11-15T02:55:32;4.63;;;2.90;;
37645;SDS011;23489;49.600;6.138;2022-11-15T03:04:40;3.10;;;2.60;;
37645;SDS011;23489;49.600;6.138;2022-11-15T03:10:53;3.97;;;2.77;;
37645;SDS011;23489;49.600;6.138;2022-11-15T03:13:56;3.30;;;2.60;;
37645;SDS011;23489;49.600;6.138;2022-11-15T03:16:47;3.10;;;2.70;;
37645;SDS011;23489;49.600;6.138;2022-11-15T03:19:53;4.00;;;2.85;;
37645;SDS011;23489;49.600;6.138;2022-11-15T03:22:41;3.37;;;2.50;;
37645;SDS011;23489;49.600;6.138;2022-11-15T03:25:28;4.13;;;3.05;;
37645;SDS011;23489;49.600;6.138;2022-11-15T03:28:19;3.67;;;2.90;;
37645;SDS011;23489;49.600;6.138;2022-11-15T03:31:09;5.05;;;2.88;;
37645;SDS011;23489;49.600;6.138;2022-11-15T03:34:37;3.92;;;2.90;;
37645;SDS011;23489;49.600;6.138;2022-11-15T03:37:35;3.33;;;2.50;;
37645;SDS011;23489;49.600;6.138;2022-11-15T03:40:37;3.80;;;2.70;;
37645;SDS011;23489;49.600;6.138;2022-11-15T03:43:30;3.20;;;2.63;;
37645;SDS011;23489;49.600;6.138;2022-11-15T03:47:05;2.90;;;2.60;;
37645;SDS011;23489;49.600;6.138;2022-11-15T03:49:35;4.20;;;2.70;;
37645;SDS011;23489;49.600;6.138;2022-11-15T03:52:22;3.47;;;2.53;;
37645;SDS011;23489;49.600;6.138;2022-11-15T03:55:07;2.90;;;2.60;;
37645;SDS011;23489;49.600;6.138;2022-11-15T03:57:56;3.85;;;3.05;;
37645;SDS011;23489;49.600;6.138;2022-11-15T04:00:42;4.23;;;3.00;;
37645;SDS011;23489;49.600;6.138;2022-11-15T04:03:27;4.53;;;2.83;;
37645;SDS011;23489;49.600;6.138;2022-11-15T04:06:12;4.25;;;2.83;;
37645;SDS011;23489;49.600;6.138;2022-11-15T04:08:56;4.45;;;2.90;;
37645;SDS011;23489;49.600;6.138;2022-11-15T04:11:41;5.17;;;2.93;;
37645;SDS011;23489;49.600;6.138;2022-11-15T04:14:25;3.33;;;2.73;;
37645;SDS011;23489;49.600;6.138;2022-11-15T04:17:09;3.00;;;2.70;;
37645;SDS011;23489;49.600;6.138;2022-11-15T04:19:53;3.30;;;2.90;;
37645;SDS011;23489;49.600;6.138;2022-11-15T04:22:57;3.38;;;2.70;;
37645;SDS011;23489;49.600;6.138;2022-11-15T04:26:03;3.92;;;3.20;;
37645;SDS011;23489;49.600;6.138;2022-11-15T04:28:49;4.40;;;3.15;;
37645;SDS011;23489;49.600;6.138;2022-11-15T04:31:52;3.78;;;3.25;;
37645;SDS011;23489;49.600;6.138;2022-11-15T04:34:36;4.18;;;3.33;;
37645;SDS011;23489;49.600;6.138;2022-11-15T04:37:21;4.70;;;3.57;;
37645;SDS011;23489;49.600;6.138;2022-11-15T04:40:06;5.00;;;3.63;;
37645;SDS011;23489;49.600;6.138;2022-11-15T04:42:51;4.77;;;3.57;;
37645;SDS011;23489;49.600;6.138;2022-11-15T04:45:36;6.43;;;3.50;;
37645;SDS011;23489;49.600;6.138;2022-11-15T04:48:20;4.97;;;3.33;;
37645;SDS011;23489;49.600;6.138;2022-11-15T04:51:04;4.22;;;3.53;;
37645;SDS011;23489;49.600;6.138;2022-11-15T04:53:49;5.75;;;3.15;;
37645;SDS011;23489;49.600;6.138;2022-11-15T04:56:33;5.25;;;3.58;;
37645;SDS011;23489;49.600;6.138;2022-11-15T04:59:17;6.00;;;3.50;;
37645;SDS011;23489;49.600;6.138;2022-11-15T05:02:01;5.22;;;4.05;;
37645;SDS011;23489;49.600;6.138;2022-11-15T05:04:45;4.70;;;3.42;;
37645;SDS011;23489;49.600;6.138;2022-11-15T05:07:29;4.57;;;3.50;;
37645;SDS011;23489;49.600;6.138;2022-11-15T05:10:14;5.25;;;3.30;;
37645;SDS011;23489;49.600;6.138;2022-11-15T05:12:58;4.75;;;3.17;;
37645;SDS011;23489;49.600;6.138;2022-11-15T05:15:42;4.67;;;3.00;;
37645;SDS011;23489;49.600;6.138;2022-11-15T05:18:27;4.30;;;2.97;;
37645;SDS011;23489;49.600;6.138;2022-11-15T05:21:12;3.97;;;2.90;;
37645;SDS011;23489;49.600;6.138;2022-11-15T05:23:58;4.10;;;2.78;;
37645;SDS011;23489;49.600;6.138;2022-11-15T05:26:42;3.97;;;2.60;;
37645;SDS011;23489;49.600;6.138;2022-11-15T05:29:26;4.30;;;2.70;;
37645;SDS011;23489;49.600;6.138;2022-11-15T05:32:10;2.97;;;2.58;;
37645;SDS011;23489;49.600;6.138;2022-11-15T05:34:55;3.97;;;2.70;;
37645;SDS011;23489;49.600;6.138;2022-11-15T05:37:40;3.95;;;2.70;;
37645;SDS011;23489;49.600;6.138;2022-11-15T05:40:24;7.20;;;2.70;;
37645;SDS011;23489;49.600;6.138;2022-11-15T05:43:09;4.80;;;2.70;;
37645;SDS011;23489;49.600;6.138;2022-11-15T05:45:54;5.07;;;3.10;;
37645;SDS011;23489;49.600;6.138;2022-11-15T05:48:38;5.53;;;3.47;;
37645;SDS011;23489;49.600;6.138;2022-11-15T05:51:26;4.60;;;3.40;;
37645;SDS011;23489;49.600;6.138;2022-11-15T05:54:12;5.60;;;3.38;;
37645;SDS011;23489;49.600;6.138;2022-11-15T05:56:58;6.93;;;3.13;;
37645;SDS011;23489;49.600;6.138;2022-11-15T05:59:43;5.20;;;2.50;;
37645;SDS011;23489;49.600;6.138;2022-11-15T06:02:28;5.13;;;2.13;;
37645;SDS011;23489;49.600;6.138;2022-11-15T06:05:12;4.70;;;2.28;;
37645;SDS011;23489;49.600;6.138;2022-11-15T06:07:58;4.05;;;2.25;;
37645;SDS011;23489;49.600;6.138;2022-11-15T06:10:42;5.38;;;2.40;;
37645;SDS011;23489;49.600;6.138;2022-11-15T06:13:27;5.22;;;2.17;;
37645;SDS011;23489;49.600;6.138;2022-11-15T06:16:11;4.93;;;2.43;;
37645;SDS011;23489;49.600;6.138;2022-11-15T06:18:55;6.00;;;2.60;;
37645;SDS011;23489;49.600;6.138;2022-11-15T06:21:39;5.25;;;3.55;;
37645;SDS011;23489;49.600;6.138;2022-11-15T06:24:23;6.82;;;4.00;;
37645;SDS011;23489;49.600;6.138;2022-11-15T06:27:07;5.78;;;3.92;;
37645;SDS011;23489;49.600;6.138;2022-11-15T06:29:52;7.53;;;4.75;;
37645;SDS011;23489;49.600;6.138;2022-11-15T06:32:35;7.05;;;4.95;;
37645;SDS011;23489;49.600;6.138;2022-11-15T06:35:20;7.50;;;5.38;;
37645;SDS011;23489;49.600;6.138;2022-11-15T06:38:04;7.25;;;5.07;;
37645;SDS011;23489;49.600;6.138;2022-11-15T06:40:51;5.90;;;5.20;;
37645;SDS011;23489;49.600;6.138;2022-11-15T06:43:35;10.70;;;5.67;;
37645;SDS011;23489;49.600;6.138;2022-11-15T06:46:21;8.48;;;5.43;;
37645;SDS011;23489;49.600;6.138;2022-11-15T06:49:05;9.13;;;5.90;;
37645;SDS011;23489;49.600;6.138;2022-11-15T06:51:49;8.75;;;5.47;;
37645;SDS011;23489;49.600;6.138;2022-11-15T06:54:33;8.10;;;5.63;;
37645;SDS011;23489;49.600;6.138;2022-11-15T06:57:17;8.63;;;5.57;;
37645;SDS011;23489;49.600;6.138;2022-11-15T07:00:03;8.53;;;5.40;;
37645;SDS011;23489;49.600;6.138;2022-11-15T07:02:48;7.72;;;4.50;;
37645;SDS011;23489;49.600;6.138;2022-11-15T07:05:33;6.00;;;4.53;;
37645;SDS011;23489;49.600;6.138;2022-11-15T07:08:18;6.57;;;4.82;;
37645;SDS011;23489;49.600;6.138;2022-11-15T07:11:04;7.87;;;4.43;;
37645;SDS011;23489;49.600;6.138;2022-11-15T07:13:50;10.70;;;4.80;;
37645;SDS011;23489;49.600;6.138;2022-11-15T07:16:34;8.90;;;4.68;;
37645;SDS011;23489;49.600;6.138;2022-11-15T07:19:20;7.93;;;4.97;;
37645;SDS011;23489;49.600;6.138;2022-11-15T07:22:04;8.63;;;4.78;;
37645;SDS011;23489;49.600;6.138;2022-11-15T07:24:48;5.40;;;4.38;;
37645;SDS011;23489;49.600;6.138;2022-11-15T07:27:33;7.07;;;4.55;;
37645;SDS011;23489;49.600;6.138;2022-11-15T07:30:18;6.82;;;4.30;;
37645;SDS011;23489;49.600;6.138;2022-11-15T07:33:02;7.23;;;4.47;;
37645;SDS011;23489;49.600;6.138;2022-11-15T07:35:47;5.05;;;3.88;;
37645;SDS011;23489;49.600;6.138;2022-11-15T07:38:34;7.38;;;4.25;;
37645;SDS011;23489;49.600;6.138;2022-11-15T07:41:19;8.30;;;4.53;;
37645;SDS011;23489;49.600;6.138;2022-11-15T07:44:03;5.97;;;4.07;;
37645;SDS011;23489;49.600;6.138;2022-11-15T07:46:47;6.73;;;4.20;;
37645;SDS011;23489;49.600;6.138;2022-11-15T07:49:32;7.70;;;4.10;;
37645;SDS011;23489;49.600;6.138;2022-11-15T07:52:16;5.13;;;3.80;;
37645;SDS011;23489;49.600;6.138;2022-11-15T07:55:00;6.20;;;4.28;;
37645;SDS011;23489;49.600;6.138;2022-11-15T07:57:44;6.07;;;4.03;;
37645;SDS011;23489;49.600;6.138;2022-11-15T08:00:29;5.68;;;4.18;;
37645;SDS011;23489;49.600;6.138;2022-11-15T08:03:14;6.43;;;4.37;;
37645;SDS011;23489;49.600;6.138;2022-11-15T08:06:00;7.28;;;4.18;;
37645;SDS011;23489;49.600;6.138;2022-11-15T08:08:46;6.68;;;4.10;;
37645;SDS011;23489;49.600;6.138;2022-11-15T08:11:31;7.35;;;4.07;;
37645;SDS011;23489;49.600;6.138;2022-11-15T08:14:15;8.10;;;4.50;;
37645;SDS011;23489;49.600;6.138;2022-11-15T08:16:59;9.38;;;4.43;;
37645;SDS011;23489;49.600;6.138;2022-11-15T08:19:43;6.88;;;4.40;;
37645;SDS011;23489;49.600;6.138;2022-11-15T08:22:27;7.13;;;4.45;;
37645;SDS011;23489;49.600;6.138;2022-11-15T08:25:11;7.20;;;4.30;;
37645;SDS011;23489;49.600;6.138;2022-11-15T08:27:57;7.35;;;4.53;;
37645;SDS011;23489;49.600;6.138;2022-11-15T08:30:43;5.07;;;4.13;;
37645;SDS011;23489;49.600;6.138;2022-11-15T08:33:29;6.43;;;4.93;;
37645;SDS011;23489;49.600;6.138;2022-11-15T08:36:14;5.30;;;4.10;;
37645;SDS011;23489;49.600;6.138;2022-11-15T08:39:00;7.25;;;4.20;;
37645;SDS011;23489;49.600;6.138;2022-11-15T08:41:44;5.50;;;3.97;;
37645;SDS011;23489;49.600;6.138;2022-11-15T08:44:28;7.60;;;3.90;;
37645;SDS011;23489;49.600;6.138;2022-11-15T08:47:13;6.47;;;4.00;;
37645;SDS011;23489;49.600;6.138;2022-11-15T16:01:04;3.30;;;2.65;;
37645;SDS011;23489;49.600;6.138;2022-11-15T16:03:29;5.32;;;2.90;;
37645;SDS011;23489;49.600;6.138;2022-11-15T16:05:56;3.47;;;2.67;;
37645;SDS011;23489;49.600;6.138;2022-11-15T16:08:23;3.08;;;2.70;;
